Time;durP1;ratioP1;P1;durP2;ratioP2;P2;SDS_P1;SDS_P2;PMS_P1;PMS_P2;Temp;Humidity;BMP_temperature;BMP_pressure;BME280_temperature;BME280_humidity;BME280_pressure;Samples;Min_cycle;Max_cycle;Signal;HPM_P1;HPM_P2
2022/08/21 03:00:43;;;;;;;5.47;3.10;;;26.10;52.00;;;;;;5734708;23;45357;-67
2022/08/21 03:03:09;;;;;;;4.70;2.80;;;26.10;52.00;;;;;;4838945;28;45740;-65
2022/08/21 03:05:35;;;;;;;3.53;3.03;;;26.10;52.00;;;;;;4884286;29;45313;-63
2022/08/21 03:08:01;;;;;;;3.80;2.83;;;26.10;52.00;;;;;;4888725;28;46262;-64
2022/08/21 03:10:27;;;;;;;3.70;2.70;;;26.10;52.00;;;;;;4920321;28;45368;-65
2022/08/21 03:12:52;;;;;;;3.78;3.25;;;26.10;52.00;;;;;;4918901;28;45612;-65
2022/08/21 03:15:19;;;;;;;3.30;3.00;;;26.00;51.90;;;;;;4904090;28;44979;-64
2022/08/21 03:17:45;;;;;;;2.95;2.72;;;26.00;52.00;;;;;;4904020;28;46127;-64
2022/08/21 03:20:12;;;;;;;2.90;2.60;;;25.90;52.10;;;;;;4917939;28;45138;-63
2022/08/21 03:22:38;;;;;;;2.40;2.20;;;25.90;52.20;;;;;;4890295;28;45405;-64
2022/08/21 03:25:04;;;;;;;2.60;2.30;;;25.80;52.30;;;;;;4903344;28;45355;-65
2022/08/21 03:27:30;;;;;;;2.70;2.30;;;25.80;52.30;;;;;;4873276;28;46670;-64
2022/08/21 03:29:56;;;;;;;2.38;2.17;;;25.80;52.30;;;;;;4921011;28;44727;-64
2022/08/21 03:32:22;;;;;;;2.27;2.13;;;25.80;52.20;;;;;;4871811;28;45524;-64
2022/08/21 03:34:47;;;;;;;2.93;2.20;;;25.80;52.10;;;;;;4897188;28;44701;-64
2022/08/21 03:37:13;;;;;;;3.07;2.60;;;25.90;52.20;;;;;;4900350;28;46890;-64
2022/08/21 03:39:39;;;;;;;4.55;4.05;;;25.80;52.20;;;;;;4905824;28;45554;-64
2022/08/21 03:42:06;;;;;;;4.22;2.85;;;25.80;52.20;;;;;;4900352;28;45781;-64
2022/08/21 03:44:31;;;;;;;3.20;2.90;;;25.80;52.40;;;;;;4900975;28;45711;-64
2022/08/21 03:46:57;;;;;;;3.47;2.90;;;25.80;52.30;;;;;;4920168;28;45251;-64
2022/08/21 03:49:23;;;;;;;4.20;3.30;;;25.80;52.30;;;;;;4888211;28;44720;-64
2022/08/21 03:51:48;;;;;;;3.30;3.00;;;25.80;52.30;;;;;;4885655;28;44890;-64
2022/08/21 03:54:14;;;;;;;4.43;3.37;;;25.80;52.30;;;;;;4920166;28;45206;-64
2022/08/21 03:56:39;;;;;;;4.90;3.50;;;25.80;52.20;;;;;;4904889;28;45829;-64
2022/08/21 03:59:05;;;;;;;4.30;3.23;;;25.80;52.30;;;;;;4919359;28;45225;-65
2022/08/21 04:01:31;;;;;;;3.90;3.10;;;25.80;52.20;;;;;;4910762;28;45424;-65
2022/08/21 04:03:56;;;;;;;3.53;3.10;;;25.80;52.20;;;;;;4902320;28;46289;-64
2022/08/21 04:06:22;;;;;;;3.33;3.03;;;25.80;52.80;;;;;;4899661;28;45832;-64
2022/08/21 04:08:48;;;;;;;3.50;3.20;;;25.80;52.20;;;;;;4904051;28;45257;-65
2022/08/21 04:11:14;;;;;;;3.17;2.73;;;25.80;52.20;;;;;;4920550;28;45369;-65
2022/08/21 04:13:40;;;;;;;3.10;2.90;;;25.90;52.10;;;;;;4904985;28;44876;-65
2022/08/21 04:16:06;;;;;;;3.30;3.00;;;25.90;52.10;;;;;;4890146;28;45217;-66
2022/08/21 04:18:32;;;;;;;3.30;3.00;;;25.90;52.00;;;;;;4902489;28;45166;-64
2022/08/21 04:20:58;;;;;;;4.27;2.93;;;25.90;52.00;;;;;;4919794;28;45751;-64
2022/08/21 04:23:23;;;;;;;2.95;2.70;;;25.90;52.00;;;;;;4885867;28;45636;-64
2022/08/21 04:25:49;;;;;;;2.95;2.75;;;25.90;52.00;;;;;;4919128;28;45074;-64
2022/08/21 04:28:15;;;;;;;2.50;2.30;;;25.90;52.00;;;;;;4903543;28;45153;-64
2022/08/21 04:30:40;;;;;;;2.95;2.65;;;25.90;51.90;;;;;;4918813;28;45189;-64
2022/08/21 04:33:06;;;;;;;3.08;2.78;;;25.90;51.90;;;;;;4889886;28;45039;-65
2022/08/21 04:35:31;;;;;;;3.10;2.90;;;25.90;51.90;;;;;;4918945;28;45317;-65
2022/08/21 04:37:57;;;;;;;3.30;2.60;;;25.80;51.90;;;;;;4891205;28;44752;-64
2022/08/21 04:40:24;;;;;;;2.67;2.47;;;25.90;51.90;;;;;;4924859;28;44725;-64
2022/08/21 04:42:52;;;;;;;2.88;2.63;;;25.90;51.90;;;;;;4906233;28;45579;-65
2022/08/21 04:45:23;;;;;;;2.90;2.70;;;25.90;51.90;;;;;;4900240;28;47438;-65
2022/08/21 04:47:50;;;;;;;2.67;2.17;;;25.90;51.90;;;;;;4915574;28;44659;-65
2022/08/21 04:50:16;;;;;;;2.80;2.60;;;25.90;52.00;;;;;;4923614;28;44816;-65
2022/08/21 04:52:42;;;;;;;2.50;2.30;;;25.80;52.00;;;;;;4911514;28;45177;-65
2022/08/21 04:55:08;;;;;;;2.90;2.40;;;25.80;52.10;;;;;;4874174;28;45684;-64
2022/08/21 04:57:34;;;;;;;2.67;2.47;;;25.80;52.20;;;;;;4915791;28;45235;-64
2022/08/21 04:59:59;;;;;;;2.40;2.20;;;25.70;52.30;;;;;;4890518;28;45322;-64
2022/08/21 05:02:26;;;;;;;2.17;1.97;;;25.80;52.30;;;;;;4904303;28;44818;-65
2022/08/21 05:04:52;;;;;;;2.20;2.00;;;25.70;52.20;;;;;;4903703;28;47058;-64
2022/08/21 05:07:24;;;;;;;2.22;2.10;;;25.80;52.30;;;;;;4892115;28;45309;-65
2022/08/21 05:09:50;;;;;;;2.60;1.80;;;25.80;52.20;;;;;;4892268;28;45219;-65
2022/08/21 05:12:16;;;;;;;2.20;2.00;;;25.80;52.30;;;;;;4905463;28;44968;-64
2022/08/21 05:14:42;;;;;;;2.40;2.20;;;25.80;52.30;;;;;;4908119;28;45750;-65
2022/08/21 05:17:08;;;;;;;2.30;2.20;;;25.80;52.30;;;;;;4920415;28;45395;-65
2022/08/21 05:19:34;;;;;;;1.90;1.80;;;25.70;52.30;;;;;;4922466;28;45320;-64
2022/08/21 05:22:00;;;;;;;3.47;2.00;;;25.80;52.40;;;;;;4893602;28;45942;-66
2022/08/21 05:24:26;;;;;;;3.13;2.08;;;25.70;52.40;;;;;;4897966;28;46171;-64
2022/08/21 05:26:52;;;;;;;2.40;2.20;;;25.70;52.50;;;;;;4899992;28;45055;-65
2022/08/21 05:29:18;;;;;;;2.10;1.92;;;25.70;52.50;;;;;;4884187;28;45476;-65
2022/08/21 05:31:44;;;;;;;1.73;1.63;;;25.70;52.50;;;;;;4899267;28;45179;-64
2022/08/21 05:34:11;;;;;;;2.05;1.95;;;25.80;52.60;;;;;;4881254;28;45919;-65
2022/08/21 05:36:37;;;;;;;1.70;1.60;;;25.70;52.60;;;;;;4882614;28;45291;-65
2022/08/21 05:39:03;;;;;;;2.10;1.90;;;25.70;52.70;;;;;;4897495;28;45317;-65
2022/08/21 05:41:28;;;;;;;1.70;1.60;;;25.70;52.90;;;;;;4917020;28;45303;-65
2022/08/21 05:43:54;;;;;;;2.25;2.10;;;25.70;53.00;;;;;;4899268;28;45777;-65
2022/08/21 05:46:19;;;;;;;1.88;1.77;;;25.70;53.00;;;;;;4898816;28;45107;-65
2022/08/21 05:48:45;;;;;;;1.90;1.67;;;25.70;52.90;;;;;;4898254;28;45370;-65
2022/08/21 05:51:12;;;;;;;1.90;1.80;;;25.70;52.90;;;;;;4917451;28;44860;-65
2022/08/21 05:53:38;;;;;;;2.00;1.90;;;25.70;53.00;;;;;;4896908;28;47057;-64
2022/08/21 05:56:04;;;;;;;2.17;2.07;;;25.70;53.00;;;;;;4916478;28;45213;-66
2022/08/21 05:58:30;;;;;;;2.25;1.90;;;25.70;52.90;;;;;;4916660;28;45292;-65
2022/08/21 06:00:57;;;;;;;2.00;1.83;;;25.70;53.10;;;;;;4867793;28;45019;-66
2022/08/21 06:03:24;;;;;;;2.30;2.10;;;25.70;53.10;;;;;;4915590;28;47026;-65
2022/08/21 06:05:50;;;;;;;1.90;1.80;;;25.70;53.10;;;;;;4899189;28;45640;-65
2022/08/21 06:08:16;;;;;;;1.60;1.50;;;25.80;53.20;;;;;;4883352;28;44644;-65
2022/08/21 06:10:42;;;;;;;1.70;1.60;;;25.80;53.10;;;;;;4917050;28;45343;-65
2022/08/21 06:13:08;;;;;;;1.83;1.73;;;25.80;53.20;;;;;;4898377;28;45262;-65
2022/08/21 06:15:34;;;;;;;1.97;1.87;;;25.80;53.20;;;;;;4897472;28;45309;-65
2022/08/21 06:17:59;;;;;;;1.93;1.83;;;25.70;53.20;;;;;;4881203;28;45339;-65
2022/08/21 06:20:25;;;;;;;1.80;1.70;;;25.70;53.30;;;;;;4897718;28;45482;-65
2022/08/21 06:22:51;;;;;;;1.90;1.80;;;25.70;53.40;;;;;;4917072;28;45127;-65
2022/08/21 06:25:17;;;;;;;1.80;1.70;;;25.70;53.40;;;;;;4897143;28;45419;-65
2022/08/21 06:27:42;;;;;;;1.85;1.75;;;25.70;53.40;;;;;;4883366;28;45492;-65
2022/08/21 06:30:08;;;;;;;1.83;1.73;;;25.70;53.50;;;;;;4914475;28;46034;-65
2022/08/21 06:32:34;;;;;;;2.00;1.85;;;25.70;53.50;;;;;;4898575;28;45999;-65
2022/08/21 06:35:00;;;;;;;2.40;1.70;;;25.70;53.50;;;;;;4881256;28;45291;-65
2022/08/21 06:37:26;;;;;;;1.83;1.73;;;25.70;53.40;;;;;;4915915;28;45387;-64
2022/08/21 06:39:52;;;;;;;3.15;2.70;;;25.70;53.30;;;;;;4915659;28;45541;-64
2022/08/21 06:42:17;;;;;;;2.20;2.00;;;25.70;53.30;;;;;;4913994;28;45947;-65
2022/08/21 06:44:43;;;;;;;2.00;1.90;;;25.60;53.50;;;;;;4899798;28;44714;-66
2022/08/21 06:47:09;;;;;;;2.40;2.20;;;25.60;53.60;;;;;;4897029;28;46382;-65
2022/08/21 06:49:34;;;;;;;2.15;2.03;;;25.60;53.60;;;;;;4898604;28;45619;-65
2022/08/21 06:52:00;;;;;;;2.70;2.03;;;25.60;53.60;;;;;;4896941;28;45855;-65
2022/08/21 06:54:26;;;;;;;1.70;1.60;;;25.60;53.60;;;;;;4882047;28;44714;-65
2022/08/21 06:56:52;;;;;;;2.00;1.90;;;25.60;53.60;;;;;;4914773;28;45409;-65
2022/08/21 06:59:17;;;;;;;2.40;2.20;;;25.60;53.60;;;;;;4898526;28;45162;-65
2022/08/21 07:01:43;;;;;;;2.33;2.13;;;25.60;53.50;;;;;;4914569;28;47043;-65
2022/08/21 07:04:08;;;;;;;1.90;1.80;;;25.60;53.50;;;;;;4897198;28;45299;-65
2022/08/21 07:06:34;;;;;;;2.37;2.17;;;25.70;53.50;;;;;;4896646;28;45175;-64
2022/08/21 07:09:01;;;;;;;2.43;1.90;;;25.70;53.60;;;;;;4898247;28;45208;-65
2022/08/21 07:11:26;;;;;;;1.80;1.70;;;25.70;53.50;;;;;;4897042;28;47162;-65
2022/08/21 07:13:53;;;;;;;2.57;1.90;;;25.70;53.50;;;;;;4915246;28;45403;-65
2022/08/21 07:16:20;;;;;;;2.30;2.10;;;25.70;53.60;;;;;;4897290;28;45351;-65
2022/08/21 07:18:46;;;;;;;2.00;1.90;;;25.70;53.60;;;;;;4881572;28;45214;-65
2022/08/21 07:21:11;;;;;;;2.10;2.00;;;25.60;53.60;;;;;;4896751;28;45790;-64
2022/08/21 07:23:39;;;;;;;2.47;2.28;;;25.60;53.70;;;;;;4898543;28;45367;-64
2022/08/21 07:26:05;;;;;;;2.15;2.03;;;25.60;53.80;;;;;;4882775;28;45336;-64
2022/08/21 07:28:30;;;;;;;2.50;2.30;;;25.60;53.80;;;;;;4897980;28;44878;-64
2022/08/21 07:30:58;;;;;;;2.50;2.30;;;25.60;53.90;;;;;;4894030;28;45291;-64
2022/08/21 07:33:24;;;;;;;2.70;2.50;;;25.60;53.90;;;;;;4893577;28;45603;-64
2022/08/21 07:35:49;;;;;;;2.03;1.92;;;25.60;53.80;;;;;;4882783;28;45497;-64
2022/08/21 07:38:15;;;;;;;2.70;2.33;;;25.60;53.80;;;;;;4897732;28;45591;-65
2022/08/21 07:40:41;;;;;;;3.00;2.80;;;25.60;53.80;;;;;;4896523;28;46142;-65
2022/08/21 07:43:06;;;;;;;2.80;2.60;;;25.60;53.80;;;;;;4914139;28;45304;-64
2022/08/21 07:45:32;;;;;;;3.45;3.15;;;25.60;53.80;;;;;;4898730;28;45169;-64
2022/08/21 07:47:57;;;;;;;2.90;2.70;;;25.60;53.90;;;;;;4897681;28;45374;-66
2022/08/21 07:50:23;;;;;;;3.17;2.95;;;25.60;54.00;;;;;;4880310;28;45230;-64
2022/08/21 07:52:49;;;;;;;3.50;3.20;;;25.60;54.10;;;;;;4880974;28;45327;-65
2022/08/21 07:55:16;;;;;;;3.22;2.92;;;25.50;54.10;;;;;;4914556;28;45395;-64
2022/08/21 07:57:42;;;;;;;3.20;2.90;;;25.60;54.10;;;;;;4915677;28;45249;-65
2022/08/21 08:00:10;;;;;;;2.95;2.65;;;25.50;54.10;;;;;;4896397;28;45825;-65
2022/08/21 08:02:35;;;;;;;3.30;3.00;;;25.50;54.00;;;;;;4915488;28;45271;-64
2022/08/21 08:05:04;;;;;;;3.05;2.80;;;25.60;54.70;;;;;;4913724;28;45630;-64
2022/08/21 08:07:30;;;;;;;3.20;3.00;;;25.60;54.00;;;;;;4914005;28;45202;-64
2022/08/21 08:09:55;;;;;;;3.13;2.90;;;25.60;54.00;;;;;;4897265;28;44968;-65
2022/08/21 08:12:21;;;;;;;2.80;2.60;;;25.60;53.90;;;;;;4896156;28;45981;-65
2022/08/21 08:14:46;;;;;;;3.33;3.03;;;25.60;54.10;;;;;;4896998;28;44864;-65
2022/08/21 08:17:13;;;;;;;3.00;2.70;;;25.60;54.00;;;;;;4897988;28;45540;-66
2022/08/21 08:19:39;;;;;;;2.90;2.70;;;25.60;53.90;;;;;;4897312;28;45302;-65
2022/08/21 08:22:15;;;;;;;3.40;2.90;;;25.70;54.00;;;;;;4881148;28;45534;-65
2022/08/21 08:24:41;;;;;;;3.78;2.80;;;25.60;54.10;;;;;;4911961;28;45252;-65
2022/08/21 08:27:06;;;;;;;3.88;3.50;;;25.60;54.10;;;;;;4890591;28;45297;-64
2022/08/21 08:29:32;;;;;;;3.30;3.00;;;25.70;54.10;;;;;;4879263;28;48007;-65
2022/08/21 08:31:57;;;;;;;2.83;2.63;;;25.70;54.00;;;;;;4912609;28;45485;-65
2022/08/21 08:34:23;;;;;;;3.07;2.77;;;25.70;54.10;;;;;;4913693;28;45341;-64
2022/08/21 08:36:49;;;;;;;2.83;2.63;;;25.70;54.00;;;;;;4896721;28;44643;-64
2022/08/21 08:39:14;;;;;;;3.53;3.23;;;25.70;54.10;;;;;;4880869;28;45980;-65
2022/08/21 08:41:40;;;;;;;3.60;3.30;;;25.70;54.10;;;;;;4913982;28;44783;-64
2022/08/21 08:44:07;;;;;;;3.70;3.40;;;25.70;54.00;;;;;;4896378;28;45466;-65
2022/08/21 08:46:43;;;;;;;3.20;2.90;;;25.70;53.90;;;;;;4897797;28;45050;-65
2022/08/21 08:49:14;;;;;;;5.25;3.65;;;25.80;53.90;;;;;;4879758;28;47032;-65
2022/08/21 08:51:50;;;;;;;3.42;3.13;;;25.70;53.90;;;;;;4893234;28;45148;-64
2022/08/21 08:54:19;;;;;;;3.90;3.60;;;25.80;53.90;;;;;;4897314;28;45653;-65
2022/08/21 08:56:45;;;;;;;3.90;3.60;;;25.80;53.90;;;;;;4880948;28;45891;-64
2022/08/21 08:59:18;;;;;;;3.55;3.25;;;25.80;53.90;;;;;;4895618;28;45393;-64
2022/08/21 09:01:44;;;;;;;3.90;3.50;;;25.80;53.90;;;;;;4878722;28;45882;-65
2022/08/21 09:04:12;;;;;;;4.57;4.18;;;25.70;53.90;;;;;;4878377;28;45158;-65
2022/08/21 09:07:06;;;;;;;3.43;3.13;;;25.80;53.80;;;;;;4882088;28;45420;-64
2022/08/21 09:09:44;;;;;;;3.55;3.28;;;25.80;53.80;;;;;;4893598;28;46476;-65
2022/08/21 09:12:17;;;;;;;3.50;3.20;;;25.80;53.70;;;;;;4897104;28;45161;-65
2022/08/21 09:14:45;;;;;;;3.55;3.25;;;25.90;53.80;;;;;;4897527;28;45346;-65
2022/08/21 09:17:22;;;;;;;4.28;3.90;;;25.90;53.70;;;;;;4893643;28;45198;-64
2022/08/21 09:20:18;;;;;;;4.15;3.80;;;25.90;53.60;;;;;;4896881;28;47042;-65
2022/08/21 09:23:09;;;;;;;3.20;3.00;;;25.90;53.60;;;;;;4901450;28;45059;-65
2022/08/21 09:26:02;;;;;;;3.58;3.28;;;25.90;53.50;;;;;;4916998;28;45422;-64
2022/08/21 09:28:34;;;;;;;3.17;2.97;;;26.00;53.40;;;;;;4897425;28;44720;-65
2022/08/21 09:31:02;;;;;;;3.45;3.15;;;26.00;53.30;;;;;;4898832;28;46192;-64
2022/08/21 09:33:28;;;;;;;3.77;3.47;;;26.00;53.30;;;;;;4887804;28;49052;-65
2022/08/21 09:35:57;;;;;;;4.23;3.27;;;26.00;53.30;;;;;;4895268;28;45590;-66
2022/08/21 09:38:34;;;;;;;4.60;3.60;;;26.00;53.30;;;;;;4897137;28;45493;-65
2022/08/21 09:41:06;;;;;;;3.95;3.65;;;26.00;53.30;;;;;;4880725;28;45311;-65
2022/08/21 09:43:32;;;;;;;4.28;3.92;;;26.00;53.30;;;;;;4863788;28;44665;-65
2022/08/21 09:46:12;;;;;;;3.80;3.50;;;26.00;53.20;;;;;;4910567;28;45211;-66
2022/08/21 09:48:53;;;;;;;3.47;3.17;;;26.10;53.20;;;;;;4895251;28;45030;-65
2022/08/21 09:51:35;;;;;;;4.30;3.90;;;26.10;53.20;;;;;;4860542;28;46027;-65
2022/08/21 09:54:07;;;;;;;3.45;3.15;;;26.10;53.10;;;;;;4878983;28;44779;-65
2022/08/21 09:59:37;;;;;;;4.20;3.80;;;26.10;52.90;;;;;;4896237;28;45025;-65
2022/08/21 10:02:22;;;;;;;4.80;4.30;;;26.20;52.90;;;;;;4894420;28;46949;-65
2022/08/21 10:04:53;;;;;;;4.93;4.10;;;26.20;53.00;;;;;;4897663;28;45593;-65
2022/08/21 10:07:21;;;;;;;3.70;3.40;;;26.20;52.90;;;;;;4877920;28;45229;-65
2022/08/21 10:10:16;;;;;;;3.90;3.60;;;26.20;52.80;;;;;;4912933;28;45240;-65
2022/08/21 10:13:13;;;;;;;4.80;4.40;;;26.20;52.80;;;;;;4911739;28;45117;-64
2022/08/21 10:15:51;;;;;;;4.40;4.00;;;26.30;52.70;;;;;;4839685;28;45266;-65
2022/08/21 10:18:26;;;;;;;4.45;4.05;;;26.20;52.50;;;;;;4909384;28;45330;-65
2022/08/21 10:21:01;;;;;;;4.00;3.70;;;26.30;52.60;;;;;;4879069;28;45512;-65
2022/08/21 10:23:47;;;;;;;4.20;3.80;;;26.30;52.50;;;;;;4878163;28;45577;-65
2022/08/21 10:26:43;;;;;;;4.00;3.70;;;26.40;52.40;;;;;;4893915;28;44865;-65
2022/08/21 10:29:43;;;;;;;4.80;4.40;;;26.40;52.50;;;;;;4893369;28;45925;-66
2022/08/21 10:32:49;;;;;;;4.63;4.22;;;26.40;52.50;;;;;;4889917;28;44723;-66
2022/08/21 10:35:23;;;;;;;4.80;4.40;;;26.50;52.50;;;;;;4883164;28;46507;-64
2022/08/21 10:37:54;;;;;;;4.70;4.30;;;26.50;52.50;;;;;;4893416;28;45601;-65
2022/08/21 10:40:35;;;;;;;4.43;4.03;;;26.50;52.40;;;;;;4898877;28;45214;-66
2022/08/21 10:43:16;;;;;;;3.83;3.53;;;26.50;52.30;;;;;;4911494;28;44748;-65
2022/08/21 10:46:12;;;;;;;3.83;3.53;;;26.50;52.30;;;;;;4894480;28;45198;-64
2022/08/21 10:48:50;;;;;;;4.00;3.70;;;26.60;52.10;;;;;;4909989;28;45885;-65
2022/08/21 10:51:39;;;;;;;4.82;4.43;;;26.60;52.10;;;;;;4877791;28;45443;-66
2022/08/21 10:54:24;;;;;;;4.67;4.27;;;26.60;52.00;;;;;;4894782;28;45564;-66
2022/08/21 10:56:54;;;;;;;4.93;4.53;;;26.70;52.00;;;;;;4911087;28;46171;-65
2022/08/21 10:59:43;;;;;;;4.57;4.18;;;26.70;51.80;;;;;;4877360;28;45247;-65
2022/08/21 11:02:17;;;;;;;4.65;4.25;;;26.70;51.80;;;;;;4891145;28;45669;-65
2022/08/21 11:05:27;;;;;;;4.70;4.30;;;26.70;51.60;;;;;;4879629;28;45987;-65
2022/08/21 11:08:05;;;;;;;4.30;3.90;;;26.80;51.60;;;;;;4850010;29;45873;-65
2022/08/21 11:10:41;;;;;;;4.37;3.97;;;26.80;51.50;;;;;;4836994;29;45324;-65
2022/08/21 11:13:44;;;;;;;4.47;4.07;;;26.80;51.20;;;;;;4871094;28;45726;-65
2022/08/21 11:16:46;;;;;;;4.65;4.25;;;26.90;51.10;;;;;;4893388;28;45636;-65
2022/08/21 11:19:31;;;;;;;4.57;3.95;;;27.00;51.00;;;;;;4881249;28;45586;-64
2022/08/21 11:22:21;;;;;;;4.13;3.78;;;27.00;50.90;;;;;;4894717;28;45079;-65
2022/08/21 11:25:08;;;;;;;4.07;3.78;;;27.00;50.80;;;;;;4894357;28;45226;-66
2022/08/21 11:27:59;;;;;;;4.22;3.83;;;27.10;50.80;;;;;;4892233;28;45290;-64
2022/08/21 11:30:26;;;;;;;3.80;3.50;;;27.10;50.80;;;;;;4897133;28;45269;-65
2022/08/21 11:33:41;;;;;;;4.43;3.72;;;27.10;50.70;;;;;;4895306;28;44835;-64
2022/08/21 11:36:27;;;;;;;4.20;3.83;;;27.10;50.60;;;;;;4858298;28;45556;-64
2022/08/21 11:39:10;;;;;;;3.83;3.53;;;27.20;50.40;;;;;;4896609;28;46143;-65
2022/08/21 11:41:39;;;;;;;3.97;3.67;;;27.20;50.20;;;;;;4885910;28;45938;-64
2022/08/21 11:44:17;;;;;;;4.28;3.42;;;27.20;50.10;;;;;;4879432;28;45827;-64
2022/08/21 11:46:46;;;;;;;4.33;3.50;;;27.30;50.00;;;;;;4915718;28;45266;-64
2022/08/21 11:49:47;;;;;;;4.05;3.40;;;27.30;49.90;;;;;;4910959;28;44769;-65
2022/08/21 11:52:34;;;;;;;3.75;3.45;;;27.30;49.80;;;;;;4838694;29;45562;-64
2022/08/21 11:55:04;;;;;;;3.50;3.20;;;27.30;49.60;;;;;;4878466;28;45208;-65
2022/08/21 11:57:40;;;;;;;3.78;3.47;;;27.40;49.50;;;;;;4888093;28;45237;-64
2022/08/21 12:00:10;;;;;;;3.75;3.45;;;27.40;49.50;;;;;;4895689;28;45484;-65
2022/08/21 12:02:53;;;;;;;3.45;3.15;;;27.40;49.30;;;;;;4914235;28;45154;-65
2022/08/21 12:05:33;;;;;;;3.73;3.43;;;27.40;49.00;;;;;;4889593;28;64113;-65
2022/08/21 12:08:13;;;;;;;3.60;3.30;;;27.50;48.50;;;;;;4871110;28;45655;-65
2022/08/21 12:10:47;;;;;;;3.25;3.05;;;27.50;48.10;;;;;;4910782;28;45141;-65
2022/08/21 12:13:30;;;;;;;3.47;3.28;;;27.50;48.10;;;;;;4909384;28;46989;-65
2022/08/21 12:16:13;;;;;;;3.35;3.05;;;27.50;47.90;;;;;;4883138;28;45278;-65
2022/08/21 12:18:38;;;;;;;3.20;2.90;;;27.60;47.50;;;;;;4909956;28;45380;-65
2022/08/21 12:21:22;;;;;;;3.10;2.90;;;27.60;47.10;;;;;;4897086;28;45604;-65
2022/08/21 12:23:58;;;;;;;3.90;3.50;;;27.60;47.10;;;;;;4897599;28;46060;-66
2022/08/21 12:26:27;;;;;;;3.78;3.00;;;27.60;46.80;;;;;;4883462;28;45805;-66
2022/08/21 12:29:13;;;;;;;3.38;3.08;;;27.60;46.40;;;;;;4914489;28;44759;-64
2022/08/21 12:32:05;;;;;;;3.60;3.30;;;27.70;46.30;;;;;;4880081;28;45105;-63
2022/08/21 12:34:54;;;;;;;3.55;3.25;;;27.70;46.20;;;;;;4899433;28;45927;-63
2022/08/21 12:37:29;;;;;;;3.30;3.00;;;27.70;46.20;;;;;;4897877;28;45673;-64
2022/08/21 12:39:54;;;;;;;3.42;3.13;;;27.70;45.90;;;;;;4915305;28;44973;-64
2022/08/21 12:42:33;;;;;;;3.20;2.90;;;27.70;45.50;;;;;;4902914;28;45293;-63
2022/08/21 12:45:02;;;;;;;3.80;3.17;;;27.80;45.40;;;;;;4898546;28;46760;-64
2022/08/21 12:47:43;;;;;;;3.58;3.28;;;27.80;45.40;;;;;;4884173;28;45563;-64
2022/08/21 12:50:13;;;;;;;3.05;2.85;;;27.80;46.00;;;;;;4885917;28;45088;-64
2022/08/21 12:52:43;;;;;;;3.17;2.90;;;27.80;45.40;;;;;;4884508;28;45026;-64
2022/08/21 12:55:15;;;;;;;3.37;3.03;;;27.80;45.30;;;;;;4884745;28;46043;-64
2022/08/21 12:57:41;;;;;;;3.10;2.80;;;27.80;45.20;;;;;;4913247;28;45604;-64
2022/08/21 13:00:12;;;;;;;3.30;3.00;;;27.80;45.20;;;;;;4914824;28;45431;-64
2022/08/21 13:02:42;;;;;;;3.17;2.90;;;27.80;45.30;;;;;;4902838;28;45329;-65
2022/08/21 13:05:11;;;;;;;3.03;2.77;;;27.90;45.20;;;;;;4899198;28;46196;-64
2022/08/21 13:07:38;;;;;;;3.20;2.90;;;27.90;44.80;;;;;;4908085;28;44655;-64
2022/08/21 13:10:06;;;;;;;3.33;3.03;;;27.90;45.00;;;;;;4899605;28;45254;-64
2022/08/21 13:12:32;;;;;;;2.90;2.70;;;27.90;44.90;;;;;;4899270;28;46362;-64
2022/08/21 13:15:00;;;;;;;3.03;2.83;;;27.90;44.90;;;;;;4916152;28;45336;-63
2022/08/21 13:17:25;;;;;;;3.20;2.90;;;27.90;44.80;;;;;;4916757;28;46016;-65
2022/08/21 13:19:59;;;;;;;3.03;2.80;;;28.00;44.80;;;;;;4913288;28;45163;-63
2022/08/21 13:22:25;;;;;;;3.40;3.10;;;28.00;44.50;;;;;;4914779;28;45366;-64
2022/08/21 13:24:51;;;;;;;3.30;3.00;;;28.00;44.50;;;;;;4889015;28;45481;-64
2022/08/21 13:27:22;;;;;;;3.53;3.00;;;28.00;44.40;;;;;;4916124;28;44921;-65
2022/08/21 13:29:48;;;;;;;3.15;2.63;;;28.00;44.30;;;;;;4900069;28;45271;-64
2022/08/21 13:32:20;;;;;;;2.83;2.60;;;28.00;44.30;;;;;;4900190;28;45744;-65
2022/08/21 13:34:47;;;;;;;3.03;2.83;;;28.10;44.20;;;;;;4885579;28;46405;-65
2022/08/21 13:37:13;;;;;;;3.67;3.00;;;28.00;44.00;;;;;;4916805;28;44815;-65
2022/08/21 13:39:38;;;;;;;4.37;2.80;;;28.10;44.00;;;;;;4903823;28;45421;-65
2022/08/21 13:42:05;;;;;;;3.50;2.43;;;28.10;44.10;;;;;;4896331;28;46120;-66
2022/08/21 13:44:43;;;;;;;2.70;2.50;;;28.10;44.10;;;;;;4898093;28;46969;-65
2022/08/21 13:47:10;;;;;;;3.17;2.88;;;28.10;44.00;;;;;;4898972;28;45019;-64
2022/08/21 13:49:40;;;;;;;2.70;2.50;;;28.10;43.90;;;;;;4916350;28;45357;-64
2022/08/21 13:52:14;;;;;;;2.70;2.50;;;28.10;43.90;;;;;;4899415;28;45656;-65
2022/08/21 13:54:41;;;;;;;2.80;2.50;;;28.10;43.80;;;;;;4880613;28;46575;-64
2022/08/21 13:57:24;;;;;;;2.88;2.63;;;28.10;43.50;;;;;;4917052;28;45336;-64
2022/08/21 13:59:50;;;;;;;2.85;2.65;;;28.10;43.20;;;;;;4915303;28;44734;-64
2022/08/21 14:02:19;;;;;;;2.60;2.40;;;28.10;43.20;;;;;;4901352;28;45118;-65
2022/08/21 14:04:52;;;;;;;3.00;2.40;;;28.20;42.80;;;;;;4901860;28;46417;-65
2022/08/21 14:07:20;;;;;;;2.70;2.50;;;28.20;42.80;;;;;;4900824;28;45370;-63
2022/08/21 14:09:46;;;;;;;3.47;2.60;;;28.20;42.70;;;;;;4865213;28;45449;-64
2022/08/21 14:12:25;;;;;;;2.50;2.30;;;28.20;42.60;;;;;;4888603;28;45605;-64
2022/08/21 14:14:51;;;;;;;2.60;2.40;;;28.20;42.40;;;;;;4901049;28;46151;-65
2022/08/21 14:17:33;;;;;;;2.53;2.33;;;28.20;42.40;;;;;;4903094;28;45271;-65
2022/08/21 14:19:58;;;;;;;2.50;2.30;;;28.20;42.20;;;;;;4904773;28;45245;-65
2022/08/21 14:22:45;;;;;;;2.73;2.47;;;28.20;42.10;;;;;;4901687;28;45432;-65
2022/08/21 14:25:11;;;;;;;2.63;2.42;;;28.20;42.20;;;;;;4893974;28;46360;-65
2022/08/21 14:28:02;;;;;;;2.50;2.30;;;28.20;42.10;;;;;;4916645;28;45297;-65
2022/08/21 14:30:36;;;;;;;2.38;2.17;;;28.20;41.90;;;;;;4890654;28;45332;-66
2022/08/21 14:33:02;;;;;;;3.17;2.50;;;28.20;41.60;;;;;;4885809;28;45485;-65
2022/08/21 14:35:27;;;;;;;2.60;2.40;;;28.20;41.50;;;;;;4901582;28;47209;-65
2022/08/21 14:37:53;;;;;;;2.93;2.37;;;28.20;41.50;;;;;;4917229;28;44817;-64
2022/08/21 14:40:20;;;;;;;2.65;2.45;;;28.20;41.30;;;;;;4899711;28;44867;-64
2022/08/21 14:42:45;;;;;;;2.63;2.42;;;28.20;41.40;;;;;;4899186;28;45336;-65
2022/08/21 14:45:40;;;;;;;3.97;2.35;;;28.20;41.70;;;;;;4898877;28;46102;-65
2022/08/21 14:48:06;;;;;;;2.45;2.22;;;28.30;41.70;;;;;;4912545;28;45221;-66
2022/08/21 14:50:31;;;;;;;2.57;2.37;;;28.30;41.70;;;;;;4899803;28;45368;-64
2022/08/21 14:52:57;;;;;;;4.20;2.50;;;28.30;41.70;;;;;;4913168;28;45532;-66
2022/08/21 14:55:22;;;;;;;3.92;2.33;;;28.40;41.70;;;;;;4899252;28;47410;-64
2022/08/21 14:57:49;;;;;;;2.78;2.55;;;28.40;41.60;;;;;;4896511;28;45303;-65
2022/08/21 15:00:17;;;;;;;2.55;2.35;;;28.40;41.40;;;;;;4898611;28;45330;-65
2022/08/21 15:02:43;;;;;;;2.90;2.30;;;28.40;41.40;;;;;;4913736;28;45064;-65
2022/08/21 15:05:09;;;;;;;2.60;2.40;;;28.40;41.20;;;;;;4898903;28;45914;-64
2022/08/21 15:07:34;;;;;;;2.40;2.20;;;28.40;41.10;;;;;;4918836;28;45245;-65
2022/08/21 15:10:00;;;;;;;2.50;2.30;;;28.40;40.70;;;;;;4915216;28;45296;-65
2022/08/21 15:12:26;;;;;;;2.40;2.20;;;28.40;40.60;;;;;;4897546;28;45659;-65
2022/08/21 15:14:52;;;;;;;2.50;2.30;;;28.40;40.60;;;;;;4882697;28;45141;-67
2022/08/21 15:17:18;;;;;;;2.35;2.15;;;28.50;40.40;;;;;;4898208;28;44645;-64
2022/08/21 15:19:43;;;;;;;2.40;2.20;;;28.50;40.30;;;;;;4898939;28;45240;-64
2022/08/21 15:22:09;;;;;;;2.43;2.20;;;28.50;40.20;;;;;;4917264;28;45504;-64
2022/08/21 15:24:34;;;;;;;2.43;2.20;;;28.50;39.90;;;;;;4894163;28;46201;-65
2022/08/21 15:27:01;;;;;;;2.60;2.17;;;28.50;39.70;;;;;;4914281;28;45597;-63
2022/08/21 15:29:27;;;;;;;2.30;2.10;;;28.50;39.40;;;;;;4883724;28;45484;-65
2022/08/21 15:32:00;;;;;;;2.40;2.00;;;28.50;39.30;;;;;;4915323;28;45479;-63
2022/08/21 15:34:27;;;;;;;2.30;2.10;;;28.50;39.00;;;;;;4894571;28;46250;-65
2022/08/21 15:36:57;;;;;;;2.40;2.20;;;28.60;38.90;;;;;;4898264;28;45055;-63
2022/08/21 15:39:23;;;;;;;2.90;2.20;;;28.60;38.70;;;;;;4903473;28;45307;-63
2022/08/21 15:41:48;;;;;;;2.28;2.08;;;28.60;38.60;;;;;;4897538;28;45504;-64
2022/08/21 15:44:14;;;;;;;2.17;1.80;;;28.60;38.70;;;;;;4893448;28;47254;-64
2022/08/21 15:46:40;;;;;;;2.80;2.25;;;28.60;38.50;;;;;;4881592;28;45470;-64
2022/08/21 15:49:05;;;;;;;3.78;2.38;;;28.60;38.40;;;;;;4879635;28;45441;-64
2022/08/21 15:51:32;;;;;;;4.40;3.20;;;28.70;38.30;;;;;;4876333;28;45518;-64
2022/08/21 15:53:57;;;;;;;4.37;3.73;;;28.70;38.20;;;;;;4912327;28;46254;-63
2022/08/21 15:56:24;;;;;;;4.40;3.37;;;28.70;38.20;;;;;;4913768;28;45664;-64
2022/08/21 15:58:51;;;;;;;3.40;2.78;;;28.70;38.20;;;;;;4897221;28;45230;-65
2022/08/21 16:01:17;;;;;;;2.50;2.30;;;28.70;38.00;;;;;;4911819;28;45289;-64
2022/08/21 16:03:43;;;;;;;4.53;2.43;;;28.70;37.90;;;;;;4898187;28;46072;-65
2022/08/21 16:06:09;;;;;;;2.70;2.40;;;28.70;37.80;;;;;;4898775;28;45434;-64
2022/08/21 16:08:35;;;;;;;3.27;2.33;;;28.80;37.80;;;;;;4899510;28;44688;-63